sensor_id;sensor_type;location;lat;lon;timestamp;P1;durP1;ratioP1;P2;durP2;ratioP2
13374;SDS011;6756;51.354;15.754;2022-08-19T00:03:13;10.97;;;9.83;;
13374;SDS011;6756;51.354;15.754;2022-08-19T00:07:13;12.07;;;9.80;;
13374;SDS011;6756;51.354;15.754;2022-08-19T00:11:14;12.87;;;10.13;;
13374;SDS011;6756;51.354;15.754;2022-08-19T00:15:16;10.77;;;9.57;;
13374;SDS011;6756;51.354;15.754;2022-08-19T00:19:18;12.20;;;11.00;;
13374;SDS011;6756;51.354;15.754;2022-08-19T00:23:19;10.80;;;9.77;;
13374;SDS011;6756;51.354;15.754;2022-08-19T00:27:20;12.90;;;9.70;;
13374;SDS011;6756;51.354;15.754;2022-08-19T00:31:21;11.17;;;10.00;;
13374;SDS011;6756;51.354;15.754;2022-08-19T00:35:22;13.87;;;11.53;;
13374;SDS011;6756;51.354;15.754;2022-08-19T00:39:23;12.80;;;11.40;;
13374;SDS011;6756;51.354;15.754;2022-08-19T00:43:25;11.70;;;10.50;;
13374;SDS011;6756;51.354;15.754;2022-08-19T00:47:26;13.27;;;11.50;;
13374;SDS011;6756;51.354;15.754;2022-08-19T00:51:27;12.63;;;11.53;;
13374;SDS011;6756;51.354;15.754;2022-08-19T00:55:32;13.33;;;12.03;;
13374;SDS011;6756;51.354;15.754;2022-08-19T00:59:34;13.03;;;11.80;;
13374;SDS011;6756;51.354;15.754;2022-08-19T01:03:36;13.07;;;11.73;;
13374;SDS011;6756;51.354;15.754;2022-08-19T01:07:38;13.50;;;11.00;;
13374;SDS011;6756;51.354;15.754;2022-08-19T01:11:41;12.50;;;11.20;;
13374;SDS011;6756;51.354;15.754;2022-08-19T01:15:47;12.50;;;10.53;;
13374;SDS011;6756;51.354;15.754;2022-08-19T01:19:52;15.10;;;11.17;;
13374;SDS011;6756;51.354;15.754;2022-08-19T01:23:53;12.53;;;10.77;;
13374;SDS011;6756;51.354;15.754;2022-08-19T01:27:54;14.57;;;11.77;;
13374;SDS011;6756;51.354;15.754;2022-08-19T01:31:55;12.97;;;11.57;;
13374;SDS011;6756;51.354;15.754;2022-08-19T01:36:04;14.00;;;10.73;;
13374;SDS011;6756;51.354;15.754;2022-08-19T01:40:11;13.23;;;11.30;;
13374;SDS011;6756;51.354;15.754;2022-08-19T01:44:12;12.67;;;10.97;;
13374;SDS011;6756;51.354;15.754;2022-08-19T01:48:13;12.97;;;11.67;;
13374;SDS011;6756;51.354;15.754;2022-08-19T01:52:14;12.00;;;10.80;;
13374;SDS011;6756;51.354;15.754;2022-08-19T01:56:15;12.07;;;10.90;;
13374;SDS011;6756;51.354;15.754;2022-08-19T02:00:17;14.77;;;12.00;;
13374;SDS011;6756;51.354;15.754;2022-08-19T02:04:20;12.47;;;11.00;;
13374;SDS011;6756;51.354;15.754;2022-08-19T02:08:21;12.07;;;10.77;;
13374;SDS011;6756;51.354;15.754;2022-08-19T02:12:22;12.03;;;10.83;;
13374;SDS011;6756;51.354;15.754;2022-08-19T02:16:23;12.03;;;10.63;;
13374;SDS011;6756;51.354;15.754;2022-08-19T02:20:24;12.50;;;11.27;;
13374;SDS011;6756;51.354;15.754;2022-08-19T02:24:25;13.40;;;11.80;;
13374;SDS011;6756;51.354;15.754;2022-08-19T02:28:26;13.43;;;12.23;;
13374;SDS011;6756;51.354;15.754;2022-08-19T02:32:27;13.63;;;11.80;;
13374;SDS011;6756;51.354;15.754;2022-08-19T02:36:30;12.97;;;11.67;;
13374;SDS011;6756;51.354;15.754;2022-08-19T02:40:31;13.77;;;11.80;;
13374;SDS011;6756;51.354;15.754;2022-08-19T02:44:34;15.27;;;12.00;;
13374;SDS011;6756;51.354;15.754;2022-08-19T02:48:34;13.60;;;12.20;;
13374;SDS011;6756;51.354;15.754;2022-08-19T02:52:35;11.50;;;10.30;;
13374;SDS011;6756;51.354;15.754;2022-08-19T02:56:37;11.93;;;10.73;;
13374;SDS011;6756;51.354;15.754;2022-08-19T03:00:47;12.83;;;11.53;;
13374;SDS011;6756;51.354;15.754;2022-08-19T03:04:53;13.53;;;11.27;;
13374;SDS011;6756;51.354;15.754;2022-08-19T03:08:53;12.67;;;11.33;;
13374;SDS011;6756;51.354;15.754;2022-08-19T03:12:55;12.00;;;10.57;;
13374;SDS011;6756;51.354;15.754;2022-08-19T03:16:56;13.10;;;11.77;;
13374;SDS011;6756;51.354;15.754;2022-08-19T03:20:57;12.63;;;11.43;;
13374;SDS011;6756;51.354;15.754;2022-08-19T03:24:58;14.23;;;12.73;;
13374;SDS011;6756;51.354;15.754;2022-08-19T03:29:03;13.90;;;12.50;;
13374;SDS011;6756;51.354;15.754;2022-08-19T03:33:08;16.40;;;13.37;;
13374;SDS011;6756;51.354;15.754;2022-08-19T03:37:11;18.27;;;14.37;;
13374;SDS011;6756;51.354;15.754;2022-08-19T03:41:13;14.43;;;12.53;;
13374;SDS011;6756;51.354;15.754;2022-08-19T03:45:16;17.07;;;15.27;;
13374;SDS011;6756;51.354;15.754;2022-08-19T03:49:17;17.50;;;14.53;;
13374;SDS011;6756;51.354;15.754;2022-08-19T03:53:19;16.97;;;15.10;;
13374;SDS011;6756;51.354;15.754;2022-08-19T03:57:20;18.70;;;16.17;;
13374;SDS011;6756;51.354;15.754;2022-08-19T04:01:21;17.70;;;15.83;;
13374;SDS011;6756;51.354;15.754;2022-08-19T04:05:27;18.90;;;15.93;;
13374;SDS011;6756;51.354;15.754;2022-08-19T04:09:32;18.93;;;16.10;;
13374;SDS011;6756;51.354;15.754;2022-08-19T04:13:36;15.50;;;13.90;;
13374;SDS011;6756;51.354;15.754;2022-08-19T04:17:38;14.63;;;13.23;;
13374;SDS011;6756;51.354;15.754;2022-08-19T04:21:42;15.03;;;13.53;;
13374;SDS011;6756;51.354;15.754;2022-08-19T04:25:47;14.17;;;12.83;;
13374;SDS011;6756;51.354;15.754;2022-08-19T04:29:48;15.37;;;12.43;;
13374;SDS011;6756;51.354;15.754;2022-08-19T04:33:49;14.00;;;12.50;;
13374;SDS011;6756;51.354;15.754;2022-08-19T04:37:50;11.93;;;10.80;;
13374;SDS011;6756;51.354;15.754;2022-08-19T04:41:51;12.50;;;11.20;;
13374;SDS011;6756;51.354;15.754;2022-08-19T04:46:11;16.50;;;14.90;;
13374;SDS011;6756;51.354;15.754;2022-08-19T04:50:12;18.23;;;14.70;;
13374;SDS011;6756;51.354;15.754;2022-08-19T04:54:13;14.67;;;13.27;;
13374;SDS011;6756;51.354;15.754;2022-08-19T04:58:15;12.80;;;11.57;;
13374;SDS011;6756;51.354;15.754;2022-08-19T05:02:16;12.63;;;11.43;;
13374;SDS011;6756;51.354;15.754;2022-08-19T05:06:18;13.83;;;12.53;;
13374;SDS011;6756;51.354;15.754;2022-08-19T05:10:20;15.00;;;13.23;;
13374;SDS011;6756;51.354;15.754;2022-08-19T05:14:21;14.73;;;13.23;;
13374;SDS011;6756;51.354;15.754;2022-08-19T05:18:23;14.07;;;12.77;;
13374;SDS011;6756;51.354;15.754;2022-08-19T05:22:42;16.70;;;15.00;;
13374;SDS011;6756;51.354;15.754;2022-08-19T05:26:47;16.67;;;14.33;;
13374;SDS011;6756;51.354;15.754;2022-08-19T05:30:49;17.03;;;14.93;;
13374;SDS011;6756;51.354;15.754;2022-08-19T05:34:50;17.73;;;15.93;;
13374;SDS011;6756;51.354;15.754;2022-08-19T05:38:51;15.90;;;14.30;;
13374;SDS011;6756;51.354;15.754;2022-08-19T05:42:53;18.13;;;14.87;;
13374;SDS011;6756;51.354;15.754;2022-08-19T05:46:53;15.37;;;13.90;;
13374;SDS011;6756;51.354;15.754;2022-08-19T05:50:54;16.10;;;14.47;;
13374;SDS011;6756;51.354;15.754;2022-08-19T05:54:55;16.67;;;13.57;;
13374;SDS011;6756;51.354;15.754;2022-08-19T05:58:56;15.47;;;14.00;;
13374;SDS011;6756;51.354;15.754;2022-08-19T06:02:58;14.43;;;12.93;;
13374;SDS011;6756;51.354;15.754;2022-08-19T06:07:03;14.43;;;13.07;;
13374;SDS011;6756;51.354;15.754;2022-08-19T06:11:15;14.10;;;12.73;;
13374;SDS011;6756;51.354;15.754;2022-08-19T06:15:23;14.20;;;12.83;;
13374;SDS011;6756;51.354;15.754;2022-08-19T06:19:26;14.13;;;12.63;;
13374;SDS011;6756;51.354;15.754;2022-08-19T06:23:30;13.90;;;12.10;;
13374;SDS011;6756;51.354;15.754;2022-08-19T06:27:30;13.50;;;11.87;;
13374;SDS011;6756;51.354;15.754;2022-08-19T06:31:33;16.90;;;11.70;;
13374;SDS011;6756;51.354;15.754;2022-08-19T06:35:39;12.10;;;10.90;;
13374;SDS011;6756;51.354;15.754;2022-08-19T06:39:42;10.83;;;9.80;;
13374;SDS011;6756;51.354;15.754;2022-08-19T06:43:43;10.63;;;9.53;;
13374;SDS011;6756;51.354;15.754;2022-08-19T06:47:44;12.13;;;10.40;;
13374;SDS011;6756;51.354;15.754;2022-08-19T06:51:46;11.13;;;9.70;;
13374;SDS011;6756;51.354;15.754;2022-08-19T06:55:48;10.13;;;8.73;;
13374;SDS011;6756;51.354;15.754;2022-08-19T06:59:54;9.70;;;8.70;;
13374;SDS011;6756;51.354;15.754;2022-08-19T07:03:56;12.17;;;9.47;;
13374;SDS011;6756;51.354;15.754;2022-08-19T07:07:57;9.83;;;8.57;;
13374;SDS011;6756;51.354;15.754;2022-08-19T07:11:57;9.80;;;8.50;;
13374;SDS011;6756;51.354;15.754;2022-08-19T07:15:58;8.97;;;8.10;;
13374;SDS011;6756;51.354;15.754;2022-08-19T07:20:04;9.30;;;8.47;;
13374;SDS011;6756;51.354;15.754;2022-08-19T07:24:07;10.50;;;8.27;;
13374;SDS011;6756;51.354;15.754;2022-08-19T07:28:09;8.43;;;7.70;;
13374;SDS011;6756;51.354;15.754;2022-08-19T07:32:10;10.93;;;9.33;;
13374;SDS011;6756;51.354;15.754;2022-08-19T07:36:12;8.17;;;7.47;;
13374;SDS011;6756;51.354;15.754;2022-08-19T07:40:16;8.83;;;8.07;;
13374;SDS011;6756;51.354;15.754;2022-08-19T07:44:18;11.07;;;8.52;;
13374;SDS011;6756;51.354;15.754;2022-08-19T07:48:20;8.77;;;7.25;;
13374;SDS011;6756;51.354;15.754;2022-08-19T07:52:25;9.23;;;8.32;;
13374;SDS011;6756;51.354;15.754;2022-08-19T07:56:26;9.60;;;8.32;;
13374;SDS011;6756;51.354;15.754;2022-08-19T08:00:27;11.57;;;8.18;;
13374;SDS011;6756;51.354;15.754;2022-08-19T08:04:28;9.93;;;7.70;;
13374;SDS011;6756;51.354;15.754;2022-08-19T08:08:48;8.52;;;7.72;;
13374;SDS011;6756;51.354;15.754;2022-08-19T08:13:07;7.72;;;6.25;;
13374;SDS011;6756;51.354;15.754;2022-08-19T08:17:08;9.10;;;8.20;;
13374;SDS011;6756;51.354;15.754;2022-08-19T08:21:09;10.57;;;9.43;;
13374;SDS011;6756;51.354;15.754;2022-08-19T08:25:14;14.80;;;10.48;;
13374;SDS011;6756;51.354;15.754;2022-08-19T08:29:17;11.50;;;10.25;;
13374;SDS011;6756;51.354;15.754;2022-08-19T08:33:20;13.45;;;12.05;;
13374;SDS011;6756;51.354;15.754;2022-08-19T08:37:23;12.80;;;11.32;;
13374;SDS011;6756;51.354;15.754;2022-08-19T08:41:44;13.90;;;12.43;;
13374;SDS011;6756;51.354;15.754;2022-08-19T08:46:09;16.38;;;13.02;;
13374;SDS011;6756;51.354;15.754;2022-08-19T08:50:18;15.05;;;12.13;;
13374;SDS011;6756;51.354;15.754;2022-08-19T08:54:23;18.90;;;14.50;;
13374;SDS011;6756;51.354;15.754;2022-08-19T08:58:30;22.20;;;14.77;;
13374;SDS011;6756;51.354;15.754;2022-08-19T09:02:42;15.05;;;13.57;;
13374;SDS011;6756;51.354;15.754;2022-08-19T09:11:04;14.48;;;13.07;;
13374;SDS011;6756;51.354;15.754;2022-08-19T09:15:10;15.10;;;13.50;;
13374;SDS011;6756;51.354;15.754;2022-08-19T09:19:13;13.48;;;12.07;;
13374;SDS011;6756;51.354;15.754;2022-08-19T09:23:15;14.15;;;12.88;;
13374;SDS011;6756;51.354;15.754;2022-08-19T09:27:16;15.25;;;13.65;;
13374;SDS011;6756;51.354;15.754;2022-08-19T09:31:19;14.00;;;12.70;;
13374;SDS011;6756;51.354;15.754;2022-08-19T09:35:22;15.35;;;13.05;;
13374;SDS011;6756;51.354;15.754;2022-08-19T09:39:25;15.65;;;12.55;;
13374;SDS011;6756;51.354;15.754;2022-08-19T09:43:26;15.10;;;13.70;;
13374;SDS011;6756;51.354;15.754;2022-08-19T09:47:28;16.38;;;14.88;;
13374;SDS011;6756;51.354;15.754;2022-08-19T09:51:28;17.95;;;16.23;;
13374;SDS011;6756;51.354;15.754;2022-08-19T09:55:29;17.63;;;15.98;;
13374;SDS011;6756;51.354;15.754;2022-08-19T09:59:30;17.30;;;15.65;;
13374;SDS011;6756;51.354;15.754;2022-08-19T10:03:34;17.60;;;15.73;;
13374;SDS011;6756;51.354;15.754;2022-08-19T10:07:37;17.92;;;16.20;;
13374;SDS011;6756;51.354;15.754;2022-08-19T10:11:41;17.58;;;15.77;;
13374;SDS011;6756;51.354;15.754;2022-08-19T10:15:46;17.98;;;15.10;;
13374;SDS011;6756;51.354;15.754;2022-08-19T10:19:50;17.55;;;15.95;;
13374;SDS011;6756;51.354;15.754;2022-08-19T10:23:52;17.13;;;15.38;;
13374;SDS011;6756;51.354;15.754;2022-08-19T10:27:57;16.63;;;15.05;;
13374;SDS011;6756;51.354;15.754;2022-08-19T10:31:58;18.30;;;16.42;;
13374;SDS011;6756;51.354;15.754;2022-08-19T10:36:04;17.13;;;14.77;;
13374;SDS011;6756;51.354;15.754;2022-08-19T10:40:07;15.73;;;14.13;;
13374;SDS011;6756;51.354;15.754;2022-08-19T10:44:11;15.32;;;13.82;;
13374;SDS011;6756;51.354;15.754;2022-08-19T10:48:13;17.13;;;13.18;;
13374;SDS011;6756;51.354;15.754;2022-08-19T10:52:13;14.75;;;13.32;;
13374;SDS011;6756;51.354;15.754;2022-08-19T10:56:40;13.63;;;12.00;;
13374;SDS011;6756;51.354;15.754;2022-08-19T11:00:56;11.95;;;10.85;;
13374;SDS011;6756;51.354;15.754;2022-08-19T11:04:58;11.13;;;9.88;;
13374;SDS011;6756;51.354;15.754;2022-08-19T11:08:59;10.38;;;9.30;;
13374;SDS011;6756;51.354;15.754;2022-08-19T11:13:00;9.38;;;8.48;;
13374;SDS011;6756;51.354;15.754;2022-08-19T11:17:01;9.93;;;8.40;;
13374;SDS011;6756;51.354;15.754;2022-08-19T11:21:08;9.13;;;8.32;;
13374;SDS011;6756;51.354;15.754;2022-08-19T11:25:11;8.60;;;7.80;;
13374;SDS011;6756;51.354;15.754;2022-08-19T11:29:13;9.30;;;8.40;;
13374;SDS011;6756;51.354;15.754;2022-08-19T11:33:14;8.60;;;7.80;;
13374;SDS011;6756;51.354;15.754;2022-08-19T11:37:15;9.10;;;8.23;;
13374;SDS011;6756;51.354;15.754;2022-08-19T11:41:16;9.52;;;8.63;;
13374;SDS011;6756;51.354;15.754;2022-08-19T11:45:19;9.02;;;8.13;;
13374;SDS011;6756;51.354;15.754;2022-08-19T11:49:20;12.93;;;11.57;;
13374;SDS011;6756;51.354;15.754;2022-08-19T11:53:21;11.07;;;9.98;;
13374;SDS011;6756;51.354;15.754;2022-08-19T11:57:22;10.00;;;9.10;;
13374;SDS011;6756;51.354;15.754;2022-08-19T12:01:23;11.43;;;9.48;;
13374;SDS011;6756;51.354;15.754;2022-08-19T12:05:25;12.88;;;8.82;;
13374;SDS011;6756;51.354;15.754;2022-08-19T12:09:26;9.73;;;8.80;;
13374;SDS011;6756;51.354;15.754;2022-08-19T12:13:30;10.23;;;9.25;;
13374;SDS011;6756;51.354;15.754;2022-08-19T12:17:31;11.18;;;9.63;;
13374;SDS011;6756;51.354;15.754;2022-08-19T12:21:33;10.32;;;9.02;;
13374;SDS011;6756;51.354;15.754;2022-08-19T12:25:37;10.80;;;9.70;;
13374;SDS011;6756;51.354;15.754;2022-08-19T12:29:49;10.65;;;9.65;;
13374;SDS011;6756;51.354;15.754;2022-08-19T12:33:50;11.70;;;10.07;;
13374;SDS011;6756;51.354;15.754;2022-08-19T12:37:52;11.05;;;10.05;;
13374;SDS011;6756;51.354;15.754;2022-08-19T12:41:53;10.88;;;9.32;;
13374;SDS011;6756;51.354;15.754;2022-08-19T12:45:54;11.05;;;9.60;;
13374;SDS011;6756;51.354;15.754;2022-08-19T12:49:55;11.60;;;9.32;;
13374;SDS011;6756;51.354;15.754;2022-08-19T12:53:56;10.43;;;9.35;;
13374;SDS011;6756;51.354;15.754;2022-08-19T12:57:57;10.32;;;9.43;;
13374;SDS011;6756;51.354;15.754;2022-08-19T13:01:58;11.82;;;9.52;;
13374;SDS011;6756;51.354;15.754;2022-08-19T13:05:59;10.63;;;9.57;;
13374;SDS011;6756;51.354;15.754;2022-08-19T13:10:00;9.82;;;8.82;;
13374;SDS011;6756;51.354;15.754;2022-08-19T13:14:04;9.68;;;8.18;;
13374;SDS011;6756;51.354;15.754;2022-08-19T13:18:06;9.98;;;9.07;;
13374;SDS011;6756;51.354;15.754;2022-08-19T13:22:09;10.55;;;9.55;;
13374;SDS011;6756;51.354;15.754;2022-08-19T13:26:10;9.85;;;8.80;;
13374;SDS011;6756;51.354;15.754;2022-08-19T13:30:13;10.82;;;8.80;;
13374;SDS011;6756;51.354;15.754;2022-08-19T13:34:34;10.43;;;9.52;;
13374;SDS011;6756;51.354;15.754;2022-08-19T13:38:35;10.32;;;9.23;;
13374;SDS011;6756;51.354;15.754;2022-08-19T13:42:41;9.32;;;8.45;;
13374;SDS011;6756;51.354;15.754;2022-08-19T13:46:42;10.60;;;8.52;;
13374;SDS011;6756;51.354;15.754;2022-08-19T13:50:45;10.50;;;9.48;;
13374;SDS011;6756;51.354;15.754;2022-08-19T13:54:47;9.15;;;8.25;;
13374;SDS011;6756;51.354;15.754;2022-08-19T13:58:48;9.65;;;8.43;;
13374;SDS011;6756;51.354;15.754;2022-08-19T14:02:50;10.77;;;9.57;;
13374;SDS011;6756;51.354;15.754;2022-08-19T14:06:52;9.57;;;8.68;;
13374;SDS011;6756;51.354;15.754;2022-08-19T14:10:56;10.93;;;8.63;;
13374;SDS011;6756;51.354;15.754;2022-08-19T14:14:57;10.43;;;9.52;;
13374;SDS011;6756;51.354;15.754;2022-08-19T14:18:59;10.15;;;9.10;;
13374;SDS011;6756;51.354;15.754;2022-08-19T14:22:59;12.85;;;9.57;;
13374;SDS011;6756;51.354;15.754;2022-08-19T14:27:00;11.35;;;10.15;;
13374;SDS011;6756;51.354;15.754;2022-08-19T14:31:03;13.98;;;9.75;;
13374;SDS011;6756;51.354;15.754;2022-08-19T14:35:04;11.98;;;9.05;;
13374;SDS011;6756;51.354;15.754;2022-08-19T14:39:07;11.68;;;9.20;;
13374;SDS011;6756;51.354;15.754;2022-08-19T14:43:09;10.20;;;9.27;;
13374;SDS011;6756;51.354;15.754;2022-08-19T14:47:10;9.55;;;8.52;;
13374;SDS011;6756;51.354;15.754;2022-08-19T14:51:11;10.60;;;9.27;;
13374;SDS011;6756;51.354;15.754;2022-08-19T14:55:13;10.13;;;9.18;;
13374;SDS011;6756;51.354;15.754;2022-08-19T14:59:20;11.23;;;9.30;;
13374;SDS011;6756;51.354;15.754;2022-08-19T15:03:21;10.50;;;8.93;;
13374;SDS011;6756;51.354;15.754;2022-08-19T15:07:29;11.25;;;10.25;;
13374;SDS011;6756;51.354;15.754;2022-08-19T15:11:29;11.15;;;9.45;;
13374;SDS011;6756;51.354;15.754;2022-08-19T15:15:32;9.85;;;8.95;;
13374;SDS011;6756;51.354;15.754;2022-08-19T15:19:33;12.65;;;9.43;;
13374;SDS011;6756;51.354;15.754;2022-08-19T15:23:35;10.40;;;9.38;;
13374;SDS011;6756;51.354;15.754;2022-08-19T15:27:36;11.98;;;10.68;;
13374;SDS011;6756;51.354;15.754;2022-08-19T15:31:38;11.15;;;10.05;;
13374;SDS011;6756;51.354;15.754;2022-08-19T15:35:42;11.82;;;10.65;;
13374;SDS011;6756;51.354;15.754;2022-08-19T15:39:44;11.40;;;10.30;;
13374;SDS011;6756;51.354;15.754;2022-08-19T15:43:46;12.60;;;11.40;;
13374;SDS011;6756;51.354;15.754;2022-08-19T15:47:47;12.85;;;11.55;;
13374;SDS011;6756;51.354;15.754;2022-08-19T15:51:48;14.20;;;12.82;;
13374;SDS011;6756;51.354;15.754;2022-08-19T15:55:53;15.02;;;12.65;;
13374;SDS011;6756;51.354;15.754;2022-08-19T15:59:54;14.07;;;12.65;;
13374;SDS011;6756;51.354;15.754;2022-08-19T16:04:13;12.98;;;11.75;;
13374;SDS011;6756;51.354;15.754;2022-08-19T16:08:33;13.52;;;12.13;;
13374;SDS011;6756;51.354;15.754;2022-08-19T16:12:36;14.55;;;12.98;;
13374;SDS011;6756;51.354;15.754;2022-08-19T16:16:38;15.60;;;13.90;;
13374;SDS011;6756;51.354;15.754;2022-08-19T16:20:39;14.80;;;13.15;;
13374;SDS011;6756;51.354;15.754;2022-08-19T16:24:40;16.00;;;14.30;;
13374;SDS011;6756;51.354;15.754;2022-08-19T16:28:41;16.63;;;14.97;;
13374;SDS011;6756;51.354;15.754;2022-08-19T16:32:43;15.30;;;13.90;;
13374;SDS011;6756;51.354;15.754;2022-08-19T16:36:44;17.83;;;16.03;;
13374;SDS011;6756;51.354;15.754;2022-08-19T16:40:44;17.90;;;15.90;;
13374;SDS011;6756;51.354;15.754;2022-08-19T16:44:46;17.33;;;15.47;;
13374;SDS011;6756;51.354;15.754;2022-08-19T16:48:49;16.97;;;15.23;;
13374;SDS011;6756;51.354;15.754;2022-08-19T16:52:50;17.00;;;14.93;;
13374;SDS011;6756;51.354;15.754;2022-08-19T16:56:51;17.43;;;15.73;;
13374;SDS011;6756;51.354;15.754;2022-08-19T17:00:52;20.03;;;17.83;;
13374;SDS011;6756;51.354;15.754;2022-08-19T17:04:54;21.27;;;18.23;;
13374;SDS011;6756;51.354;15.754;2022-08-19T17:08:59;20.07;;;17.93;;
13374;SDS011;6756;51.354;15.754;2022-08-19T17:13:00;20.83;;;18.67;;
13374;SDS011;6756;51.354;15.754;2022-08-19T17:17:01;21.87;;;18.70;;
13374;SDS011;6756;51.354;15.754;2022-08-19T17:21:02;21.40;;;19.17;;
13374;SDS011;6756;51.354;15.754;2022-08-19T17:25:03;22.43;;;19.47;;
13374;SDS011;6756;51.354;15.754;2022-08-19T17:29:04;21.33;;;18.73;;
13374;SDS011;6756;51.354;15.754;2022-08-19T17:33:05;21.70;;;18.70;;
13374;SDS011;6756;51.354;15.754;2022-08-19T17:37:07;21.57;;;19.27;;
13374;SDS011;6756;51.354;15.754;2022-08-19T17:41:08;21.00;;;19.00;;
13374;SDS011;6756;51.354;15.754;2022-08-19T17:45:09;22.97;;;19.70;;
13374;SDS011;6756;51.354;15.754;2022-08-19T17:49:11;19.40;;;17.50;;
13374;SDS011;6756;51.354;15.754;2022-08-19T17:53:12;21.73;;;19.23;;
13374;SDS011;6756;51.354;15.754;2022-08-19T17:57:12;21.60;;;18.53;;
13374;SDS011;6756;51.354;15.754;2022-08-19T18:01:14;20.50;;;18.33;;
13374;SDS011;6756;51.354;15.754;2022-08-19T18:05:16;23.33;;;19.57;;
13374;SDS011;6756;51.354;15.754;2022-08-19T18:09:18;21.47;;;19.17;;
13374;SDS011;6756;51.354;15.754;2022-08-19T18:13:19;20.50;;;18.30;;
13374;SDS011;6756;51.354;15.754;2022-08-19T18:17:20;21.27;;;19.17;;
13374;SDS011;6756;51.354;15.754;2022-08-19T18:21:22;20.30;;;18.20;;
13374;SDS011;6756;51.354;15.754;2022-08-19T18:25:29;18.63;;;16.73;;
13374;SDS011;6756;51.354;15.754;2022-08-19T18:29:30;18.70;;;16.80;;
13374;SDS011;6756;51.354;15.754;2022-08-19T18:33:33;19.30;;;16.70;;
13374;SDS011;6756;51.354;15.754;2022-08-19T18:37:33;18.33;;;16.53;;
13374;SDS011;6756;51.354;15.754;2022-08-19T18:41:34;18.13;;;16.20;;
13374;SDS011;6756;51.354;15.754;2022-08-19T18:45:53;17.30;;;15.47;;
13374;SDS011;6756;51.354;15.754;2022-08-19T18:50:13;17.53;;;15.67;;
13374;SDS011;6756;51.354;15.754;2022-08-19T18:54:14;16.57;;;14.97;;
13374;SDS011;6756;51.354;15.754;2022-08-19T18:58:16;17.53;;;15.87;;
13374;SDS011;6756;51.354;15.754;2022-08-19T19:02:17;17.10;;;15.03;;
13374;SDS011;6756;51.354;15.754;2022-08-19T19:06:23;20.17;;;15.17;;
13374;SDS011;6756;51.354;15.754;2022-08-19T19:10:31;17.47;;;15.67;;
13374;SDS011;6756;51.354;15.754;2022-08-19T19:14:35;16.87;;;15.13;;
13374;SDS011;6756;51.354;15.754;2022-08-19T19:18:38;17.77;;;15.00;;
13374;SDS011;6756;51.354;15.754;2022-08-19T19:22:39;19.77;;;17.10;;
13374;SDS011;6756;51.354;15.754;2022-08-19T19:26:41;18.07;;;16.17;;
13374;SDS011;6756;51.354;15.754;2022-08-19T19:30:45;18.77;;;16.77;;
13374;SDS011;6756;51.354;15.754;2022-08-19T19:34:47;18.23;;;16.40;;
13374;SDS011;6756;51.354;15.754;2022-08-19T19:38:49;19.13;;;17.00;;
13374;SDS011;6756;51.354;15.754;2022-08-19T19:42:51;19.87;;;17.80;;
13374;SDS011;6756;51.354;15.754;2022-08-19T19:46:53;19.33;;;17.37;;
13374;SDS011;6756;51.354;15.754;2022-08-19T19:50:56;20.73;;;18.67;;
13374;SDS011;6756;51.354;15.754;2022-08-19T19:54:58;19.77;;;17.77;;
13374;SDS011;6756;51.354;15.754;2022-08-19T19:59:00;19.27;;;17.27;;
13374;SDS011;6756;51.354;15.754;2022-08-19T20:03:03;22.57;;;18.60;;
13374;SDS011;6756;51.354;15.754;2022-08-19T20:07:04;19.23;;;17.23;;
13374;SDS011;6756;51.354;15.754;2022-08-19T20:11:05;19.33;;;17.37;;
13374;SDS011;6756;51.354;15.754;2022-08-19T20:15:06;20.07;;;17.57;;
13374;SDS011;6756;51.354;15.754;2022-08-19T20:19:08;21.97;;;18.10;;
13374;SDS011;6756;51.354;15.754;2022-08-19T20:23:11;21.10;;;17.83;;
13374;SDS011;6756;51.354;15.754;2022-08-19T20:27:12;21.43;;;18.00;;
13374;SDS011;6756;51.354;15.754;2022-08-19T20:31:13;21.23;;;17.90;;
13374;SDS011;6756;51.354;15.754;2022-08-19T20:35:15;19.73;;;16.43;;
13374;SDS011;6756;51.354;15.754;2022-08-19T20:39:18;21.10;;;17.60;;
13374;SDS011;6756;51.354;15.754;2022-08-19T20:43:19;19.17;;;17.17;;
13374;SDS011;6756;51.354;15.754;2022-08-19T20:47:20;19.90;;;17.70;;
13374;SDS011;6756;51.354;15.754;2022-08-19T20:51:26;20.50;;;17.93;;
13374;SDS011;6756;51.354;15.754;2022-08-19T20:55:28;20.43;;;17.53;;
13374;SDS011;6756;51.354;15.754;2022-08-19T20:59:29;19.73;;;17.63;;
13374;SDS011;6756;51.354;15.754;2022-08-19T21:03:32;20.63;;;17.20;;
13374;SDS011;6756;51.354;15.754;2022-08-19T21:07:34;22.03;;;18.13;;
13374;SDS011;6756;51.354;15.754;2022-08-19T21:11:35;22.20;;;18.80;;
13374;SDS011;6756;51.354;15.754;2022-08-19T21:15:37;21.80;;;19.27;;
13374;SDS011;6756;51.354;15.754;2022-08-19T21:19:39;20.77;;;18.53;;
13374;SDS011;6756;51.354;15.754;2022-08-19T21:23:40;21.80;;;19.43;;
13374;SDS011;6756;51.354;15.754;2022-08-19T21:27:41;21.13;;;18.77;;
13374;SDS011;6756;51.354;15.754;2022-08-19T21:31:42;22.20;;;19.63;;
13374;SDS011;6756;51.354;15.754;2022-08-19T21:35:44;21.83;;;18.70;;
13374;SDS011;6756;51.354;15.754;2022-08-19T21:39:45;23.57;;;18.83;;
13374;SDS011;6756;51.354;15.754;2022-08-19T21:43:46;23.10;;;19.57;;
13374;SDS011;6756;51.354;15.754;2022-08-19T21:47:47;21.93;;;18.50;;
13374;SDS011;6756;51.354;15.754;2022-08-19T21:51:49;22.23;;;19.83;;
13374;SDS011;6756;51.354;15.754;2022-08-19T21:55:49;20.47;;;17.90;;
13374;SDS011;6756;51.354;15.754;2022-08-19T21:59:50;24.43;;;19.43;;
13374;SDS011;6756;51.354;15.754;2022-08-19T22:03:52;19.80;;;17.63;;
13374;SDS011;6756;51.354;15.754;2022-08-19T22:07:53;19.50;;;17.40;;
13374;SDS011;6756;51.354;15.754;2022-08-19T22:11:58;23.27;;;18.87;;
13374;SDS011;6756;51.354;15.754;2022-08-19T22:16:02;21.80;;;18.77;;
13374;SDS011;6756;51.354;15.754;2022-08-19T22:20:06;19.57;;;17.53;;
13374;SDS011;6756;51.354;15.754;2022-08-19T22:24:09;20.43;;;18.30;;
13374;SDS011;6756;51.354;15.754;2022-08-19T22:28:11;21.77;;;19.40;;
13374;SDS011;6756;51.354;15.754;2022-08-19T22:32:13;19.07;;;17.07;;
13374;SDS011;6756;51.354;15.754;2022-08-19T22:36:16;22.30;;;17.50;;
13374;SDS011;6756;51.354;15.754;2022-08-19T22:40:17;20.20;;;18.20;;
13374;SDS011;6756;51.354;15.754;2022-08-19T22:44:19;20.23;;;16.93;;
13374;SDS011;6756;51.354;15.754;2022-08-19T22:48:21;17.93;;;16.07;;
13374;SDS011;6756;51.354;15.754;2022-08-19T22:52:24;20.77;;;17.57;;
13374;SDS011;6756;51.354;15.754;2022-08-19T22:56:24;19.63;;;17.53;;
13374;SDS011;6756;51.354;15.754;2022-08-19T23:00:26;21.00;;;17.10;;
13374;SDS011;6756;51.354;15.754;2022-08-19T23:04:28;20.37;;;17.57;;
13374;SDS011;6756;51.354;15.754;2022-08-19T23:08:29;21.67;;;16.83;;
13374;SDS011;6756;51.354;15.754;2022-08-19T23:12:34;22.63;;;18.23;;
13374;SDS011;6756;51.354;15.754;2022-08-19T23:16:37;18.77;;;16.77;;
13374;SDS011;6756;51.354;15.754;2022-08-19T23:20:40;19.03;;;17.03;;
13374;SDS011;6756;51.354;15.754;2022-08-19T23:24:42;18.17;;;16.20;;
13374;SDS011;6756;51.354;15.754;2022-08-19T23:28:43;19.30;;;17.07;;
13374;SDS011;6756;51.354;15.754;2022-08-19T23:33:09;19.67;;;17.57;;
13374;SDS011;6756;51.354;15.754;2022-08-19T23:37:15;19.87;;;17.87;;
13374;SDS011;6756;51.354;15.754;2022-08-19T23:41:16;20.03;;;17.93;;
13374;SDS011;6756;51.354;15.754;2022-08-19T23:45:19;21.30;;;18.60;;
13374;SDS011;6756;51.354;15.754;2022-08-19T23:49:22;16.93;;;15.17;;
13374;SDS011;6756;51.354;15.754;2022-08-19T23:53:24;18.63;;;16.70;;